sensor_id;sensor_type;location;lat;lon;timestamp;P1;durP1;ratioP1;P2;durP2;ratioP2
12776;SDS011;6452;41.572;23.732;2023-06-26T00:02:19;5.30;;;4.80;;
12776;SDS011;6452;41.572;23.732;2023-06-26T00:04:45;4.72;;;4.32;;
12776;SDS011;6452;41.572;23.732;2023-06-26T00:07:12;5.35;;;4.45;;
12776;SDS011;6452;41.572;23.732;2023-06-26T00:09:37;4.82;;;4.38;;
12776;SDS011;6452;41.572;23.732;2023-06-26T00:12:04;5.35;;;4.85;;
12776;SDS011;6452;41.572;23.732;2023-06-26T00:14:29;6.78;;;4.60;;
12776;SDS011;6452;41.572;23.732;2023-06-26T00:16:55;6.40;;;5.40;;
12776;SDS011;6452;41.572;23.732;2023-06-26T00:19:21;5.03;;;4.60;;
12776;SDS011;6452;41.572;23.732;2023-06-26T00:21:48;5.50;;;4.57;;
12776;SDS011;6452;41.572;23.732;2023-06-26T00:24:14;5.65;;;5.00;;
12776;SDS011;6452;41.572;23.732;2023-06-26T00:26:40;7.53;;;4.72;;
12776;SDS011;6452;41.572;23.732;2023-06-26T00:29:06;4.97;;;4.45;;
12776;SDS011;6452;41.572;23.732;2023-06-26T00:31:32;4.75;;;4.30;;
12776;SDS011;6452;41.572;23.732;2023-06-26T00:33:58;4.97;;;4.40;;
12776;SDS011;6452;41.572;23.732;2023-06-26T00:36:24;5.53;;;4.63;;
12776;SDS011;6452;41.572;23.732;2023-06-26T00:38:52;6.30;;;4.88;;
12776;SDS011;6452;41.572;23.732;2023-06-26T00:41:18;5.28;;;4.78;;
12776;SDS011;6452;41.572;23.732;2023-06-26T00:43:43;6.00;;;4.13;;
12776;SDS011;6452;41.572;23.732;2023-06-26T00:46:10;5.15;;;4.55;;
12776;SDS011;6452;41.572;23.732;2023-06-26T00:48:37;5.57;;;4.97;;
12776;SDS011;6452;41.572;23.732;2023-06-26T00:51:04;6.50;;;5.07;;
12776;SDS011;6452;41.572;23.732;2023-06-26T00:53:30;7.28;;;4.65;;
12776;SDS011;6452;41.572;23.732;2023-06-26T00:55:56;6.47;;;4.50;;
12776;SDS011;6452;41.572;23.732;2023-06-26T00:58:22;4.95;;;4.55;;
12776;SDS011;6452;41.572;23.732;2023-06-26T01:00:50;6.68;;;4.70;;
12776;SDS011;6452;41.572;23.732;2023-06-26T01:03:17;6.53;;;4.57;;
12776;SDS011;6452;41.572;23.732;2023-06-26T01:05:42;5.13;;;4.57;;
12776;SDS011;6452;41.572;23.732;2023-06-26T01:08:13;4.55;;;4.15;;
12776;SDS011;6452;41.572;23.732;2023-06-26T01:10:40;6.03;;;5.13;;
12776;SDS011;6452;41.572;23.732;2023-06-26T01:13:06;6.10;;;5.00;;
12776;SDS011;6452;41.572;23.732;2023-06-26T01:15:32;5.00;;;4.57;;
12776;SDS011;6452;41.572;23.732;2023-06-26T01:17:58;6.03;;;5.10;;
12776;SDS011;6452;41.572;23.732;2023-06-26T01:20:25;5.40;;;4.88;;
12776;SDS011;6452;41.572;23.732;2023-06-26T01:25:20;6.78;;;4.80;;
12776;SDS011;6452;41.572;23.732;2023-06-26T01:27:50;7.20;;;4.97;;
12776;SDS011;6452;41.572;23.732;2023-06-26T01:30:22;5.15;;;4.32;;
12776;SDS011;6452;41.572;23.732;2023-06-26T01:32:49;5.68;;;5.10;;
12776;SDS011;6452;41.572;23.732;2023-06-26T01:35:15;6.07;;;5.13;;
12776;SDS011;6452;41.572;23.732;2023-06-26T01:37:41;6.30;;;4.90;;
12776;SDS011;6452;41.572;23.732;2023-06-26T01:40:07;4.78;;;4.38;;
12776;SDS011;6452;41.572;23.732;2023-06-26T01:42:35;4.43;;;4.03;;
12776;SDS011;6452;41.572;23.732;2023-06-26T01:45:09;5.78;;;5.00;;
12776;SDS011;6452;41.572;23.732;2023-06-26T01:47:50;7.13;;;4.78;;
12776;SDS011;6452;41.572;23.732;2023-06-26T01:50:18;4.93;;;4.53;;
12776;SDS011;6452;41.572;23.732;2023-06-26T01:57:48;6.28;;;4.95;;
12776;SDS011;6452;41.572;23.732;2023-06-26T02:00:17;4.75;;;4.35;;
12776;SDS011;6452;41.572;23.732;2023-06-26T02:02:44;5.43;;;4.78;;
12776;SDS011;6452;41.572;23.732;2023-06-26T02:05:10;5.20;;;4.70;;
12776;SDS011;6452;41.572;23.732;2023-06-26T02:07:36;5.50;;;5.00;;
12776;SDS011;6452;41.572;23.732;2023-06-26T02:10:02;5.15;;;4.72;;
12776;SDS011;6452;41.572;23.732;2023-06-26T02:12:28;4.00;;;3.70;;
12776;SDS011;6452;41.572;23.732;2023-06-26T02:14:54;5.18;;;4.57;;
12776;SDS011;6452;41.572;23.732;2023-06-26T02:17:20;7.60;;;4.25;;
12776;SDS011;6452;41.572;23.732;2023-06-26T02:19:46;4.85;;;4.45;;
12776;SDS011;6452;41.572;23.732;2023-06-26T02:22:16;5.05;;;4.55;;
12776;SDS011;6452;41.572;23.732;2023-06-26T02:24:44;5.30;;;4.82;;
12776;SDS011;6452;41.572;23.732;2023-06-26T02:27:10;4.63;;;4.22;;
12776;SDS011;6452;41.572;23.732;2023-06-26T02:29:37;4.93;;;4.32;;
12776;SDS011;6452;41.572;23.732;2023-06-26T02:32:03;5.43;;;4.88;;
12776;SDS011;6452;41.572;23.732;2023-06-26T02:34:29;6.03;;;5.45;;
12776;SDS011;6452;41.572;23.732;2023-06-26T02:36:56;5.45;;;4.70;;
12776;SDS011;6452;41.572;23.732;2023-06-26T02:39:21;4.88;;;4.43;;
12776;SDS011;6452;41.572;23.732;2023-06-26T02:41:47;5.15;;;4.65;;
12776;SDS011;6452;41.572;23.732;2023-06-26T02:44:13;4.65;;;4.25;;
12776;SDS011;6452;41.572;23.732;2023-06-26T02:46:39;5.65;;;5.15;;
12776;SDS011;6452;41.572;23.732;2023-06-26T02:49:06;5.22;;;4.60;;
12776;SDS011;6452;41.572;23.732;2023-06-26T02:51:32;6.65;;;4.75;;
12776;SDS011;6452;41.572;23.732;2023-06-26T02:53:58;5.72;;;5.03;;
12776;SDS011;6452;41.572;23.732;2023-06-26T02:56:24;5.90;;;5.30;;
12776;SDS011;6452;41.572;23.732;2023-06-26T02:58:54;9.68;;;5.15;;
12776;SDS011;6452;41.572;23.732;2023-06-26T03:01:20;6.57;;;4.85;;
12776;SDS011;6452;41.572;23.732;2023-06-26T03:03:46;7.85;;;4.65;;
12776;SDS011;6452;41.572;23.732;2023-06-26T03:06:12;5.90;;;5.13;;
12776;SDS011;6452;41.572;23.732;2023-06-26T03:08:39;6.40;;;5.30;;
12776;SDS011;6452;41.572;23.732;2023-06-26T03:11:05;6.43;;;5.32;;
12776;SDS011;6452;41.572;23.732;2023-06-26T03:13:32;6.03;;;4.68;;
12776;SDS011;6452;41.572;23.732;2023-06-26T03:15:58;5.75;;;5.15;;
12776;SDS011;6452;41.572;23.732;2023-06-26T03:18:24;6.00;;;5.40;;
12776;SDS011;6452;41.572;23.732;2023-06-26T03:20:50;6.35;;;5.45;;
12776;SDS011;6452;41.572;23.732;2023-06-26T03:23:16;9.38;;;5.28;;
12776;SDS011;6452;41.572;23.732;2023-06-26T03:25:42;7.15;;;4.82;;
12776;SDS011;6452;41.572;23.732;2023-06-26T03:28:08;5.60;;;4.75;;
12776;SDS011;6452;41.572;23.732;2023-06-26T03:30:34;5.65;;;4.93;;
12776;SDS011;6452;41.572;23.732;2023-06-26T03:33:01;5.60;;;4.80;;
12776;SDS011;6452;41.572;23.732;2023-06-26T03:35:27;5.57;;;4.90;;
12776;SDS011;6452;41.572;23.732;2023-06-26T03:37:53;5.82;;;5.22;;
12776;SDS011;6452;41.572;23.732;2023-06-26T03:40:19;4.93;;;4.53;;
12776;SDS011;6452;41.572;23.732;2023-06-26T03:42:45;5.30;;;4.60;;
12776;SDS011;6452;41.572;23.732;2023-06-26T03:45:11;7.72;;;5.28;;
12776;SDS011;6452;41.572;23.732;2023-06-26T03:47:37;6.10;;;4.78;;
12776;SDS011;6452;41.572;23.732;2023-06-26T03:50:03;5.57;;;5.00;;
12776;SDS011;6452;41.572;23.732;2023-06-26T03:52:29;5.05;;;4.47;;
12776;SDS011;6452;41.572;23.732;2023-06-26T03:54:59;5.18;;;4.78;;
12776;SDS011;6452;41.572;23.732;2023-06-26T03:57:25;8.45;;;5.55;;
12776;SDS011;6452;41.572;23.732;2023-06-26T03:59:51;7.28;;;5.10;;
12776;SDS011;6452;41.572;23.732;2023-06-26T04:02:17;6.28;;;5.00;;
12776;SDS011;6452;41.572;23.732;2023-06-26T04:04:44;8.48;;;4.65;;
12776;SDS011;6452;41.572;23.732;2023-06-26T04:07:10;7.63;;;5.10;;
12776;SDS011;6452;41.572;23.732;2023-06-26T04:09:36;5.78;;;4.75;;
12776;SDS011;6452;41.572;23.732;2023-06-26T04:12:02;5.25;;;4.65;;
12776;SDS011;6452;41.572;23.732;2023-06-26T04:14:29;6.38;;;5.13;;
12776;SDS011;6452;41.572;23.732;2023-06-26T04:16:55;8.15;;;5.28;;
12776;SDS011;6452;41.572;23.732;2023-06-26T04:19:23;5.60;;;5.05;;
12776;SDS011;6452;41.572;23.732;2023-06-26T04:21:49;7.25;;;5.22;;
12776;SDS011;6452;41.572;23.732;2023-06-26T04:24:15;5.97;;;4.90;;
12776;SDS011;6452;41.572;23.732;2023-06-26T04:26:41;7.00;;;5.00;;
12776;SDS011;6452;41.572;23.732;2023-06-26T04:29:07;4.85;;;4.45;;
12776;SDS011;6452;41.572;23.732;2023-06-26T04:31:34;8.40;;;5.18;;
12776;SDS011;6452;41.572;23.732;2023-06-26T04:34:00;6.00;;;4.90;;
12776;SDS011;6452;41.572;23.732;2023-06-26T04:36:26;4.72;;;4.32;;
12776;SDS011;6452;41.572;23.732;2023-06-26T04:38:54;6.43;;;5.55;;
12776;SDS011;6452;41.572;23.732;2023-06-26T04:41:21;6.70;;;5.28;;
12776;SDS011;6452;41.572;23.732;2023-06-26T04:43:46;5.22;;;4.72;;
12776;SDS011;6452;41.572;23.732;2023-06-26T04:46:12;5.85;;;5.10;;
12776;SDS011;6452;41.572;23.732;2023-06-26T04:48:39;5.93;;;5.32;;
12776;SDS011;6452;41.572;23.732;2023-06-26T04:51:04;6.60;;;5.00;;
12776;SDS011;6452;41.572;23.732;2023-06-26T04:53:30;4.95;;;4.55;;
12776;SDS011;6452;41.572;23.732;2023-06-26T04:56:00;7.45;;;4.55;;
12776;SDS011;6452;41.572;23.732;2023-06-26T04:58:27;5.00;;;4.57;;
12776;SDS011;6452;41.572;23.732;2023-06-26T05:00:53;6.00;;;4.45;;
12776;SDS011;6452;41.572;23.732;2023-06-26T05:03:19;5.03;;;4.50;;
12776;SDS011;6452;41.572;23.732;2023-06-26T05:05:46;7.28;;;5.25;;
12776;SDS011;6452;41.572;23.732;2023-06-26T05:08:21;5.25;;;4.70;;
12776;SDS011;6452;41.572;23.732;2023-06-26T05:10:52;8.30;;;4.95;;
12776;SDS011;6452;41.572;23.732;2023-06-26T05:13:40;5.90;;;5.32;;
12776;SDS011;6452;41.572;23.732;2023-06-26T05:16:07;5.53;;;5.03;;
12776;SDS011;6452;41.572;23.732;2023-06-26T05:18:34;5.90;;;5.13;;
12776;SDS011;6452;41.572;23.732;2023-06-26T05:21:01;6.18;;;5.28;;
12776;SDS011;6452;41.572;23.732;2023-06-26T05:23:28;6.65;;;5.43;;
12776;SDS011;6452;41.572;23.732;2023-06-26T05:25:56;6.13;;;4.95;;
12776;SDS011;6452;41.572;23.732;2023-06-26T05:28:23;6.18;;;4.88;;
12776;SDS011;6452;41.572;23.732;2023-06-26T05:30:50;7.28;;;5.60;;
12776;SDS011;6452;41.572;23.732;2023-06-26T05:33:17;5.28;;;4.78;;
12776;SDS011;6452;41.572;23.732;2023-06-26T05:35:45;7.45;;;5.28;;
12776;SDS011;6452;41.572;23.732;2023-06-26T05:38:13;6.28;;;5.50;;
12776;SDS011;6452;41.572;23.732;2023-06-26T05:40:40;7.82;;;4.97;;
12776;SDS011;6452;41.572;23.732;2023-06-26T05:43:07;5.63;;;5.03;;
12776;SDS011;6452;41.572;23.732;2023-06-26T05:45:34;6.55;;;5.82;;
12776;SDS011;6452;41.572;23.732;2023-06-26T05:48:00;6.70;;;5.90;;
12776;SDS011;6452;41.572;23.732;2023-06-26T05:50:27;7.40;;;5.32;;
12776;SDS011;6452;41.572;23.732;2023-06-26T05:52:53;5.78;;;5.28;;
12776;SDS011;6452;41.572;23.732;2023-06-26T05:55:19;5.53;;;5.03;;
12776;SDS011;6452;41.572;23.732;2023-06-26T05:57:46;6.18;;;5.47;;
12776;SDS011;6452;41.572;23.732;2023-06-26T06:00:14;5.18;;;4.68;;
12776;SDS011;6452;41.572;23.732;2023-06-26T06:02:40;6.13;;;4.60;;
12776;SDS011;6452;41.572;23.732;2023-06-26T06:05:07;5.38;;;4.88;;
12776;SDS011;6452;41.572;23.732;2023-06-26T06:07:33;6.45;;;5.40;;
12776;SDS011;6452;41.572;23.732;2023-06-26T06:10:00;6.63;;;5.97;;
12776;SDS011;6452;41.572;23.732;2023-06-26T06:12:26;7.13;;;5.32;;
12776;SDS011;6452;41.572;23.732;2023-06-26T06:14:52;6.13;;;5.53;;
12776;SDS011;6452;41.572;23.732;2023-06-26T06:17:18;6.10;;;5.25;;
12776;SDS011;6452;41.572;23.732;2023-06-26T06:19:45;6.70;;;5.15;;
12776;SDS011;6452;41.572;23.732;2023-06-26T06:22:10;7.97;;;5.38;;
12776;SDS011;6452;41.572;23.732;2023-06-26T06:24:36;6.60;;;5.90;;
12776;SDS011;6452;41.572;23.732;2023-06-26T06:27:02;6.18;;;5.57;;
12776;SDS011;6452;41.572;23.732;2023-06-26T06:29:29;6.00;;;5.43;;
12776;SDS011;6452;41.572;23.732;2023-06-26T06:31:56;6.03;;;5.53;;
12776;SDS011;6452;41.572;23.732;2023-06-26T06:34:21;6.65;;;5.20;;
12776;SDS011;6452;41.572;23.732;2023-06-26T06:36:48;6.07;;;5.47;;
12776;SDS011;6452;41.572;23.732;2023-06-26T06:39:15;6.88;;;5.63;;
12776;SDS011;6452;41.572;23.732;2023-06-26T06:41:41;5.18;;;4.68;;
12776;SDS011;6452;41.572;23.732;2023-06-26T06:44:07;6.88;;;5.75;;
12776;SDS011;6452;41.572;23.732;2023-06-26T06:46:33;7.25;;;4.93;;
12776;SDS011;6452;41.572;23.732;2023-06-26T06:49:00;6.43;;;5.40;;
12776;SDS011;6452;41.572;23.732;2023-06-26T06:51:26;5.38;;;4.97;;
12776;SDS011;6452;41.572;23.732;2023-06-26T06:53:52;5.93;;;5.25;;
12776;SDS011;6452;41.572;23.732;2023-06-26T06:56:18;6.25;;;5.65;;
12776;SDS011;6452;41.572;23.732;2023-06-26T06:58:44;6.38;;;5.55;;
12776;SDS011;6452;41.572;23.732;2023-06-26T07:01:12;5.60;;;5.10;;
12776;SDS011;6452;41.572;23.732;2023-06-26T07:03:39;5.70;;;5.10;;
12776;SDS011;6452;41.572;23.732;2023-06-26T07:06:04;6.93;;;5.30;;
12776;SDS011;6452;41.572;23.732;2023-06-26T07:08:31;6.10;;;5.00;;
12776;SDS011;6452;41.572;23.732;2023-06-26T07:10:56;7.07;;;5.90;;
12776;SDS011;6452;41.572;23.732;2023-06-26T07:13:22;6.38;;;5.53;;
12776;SDS011;6452;41.572;23.732;2023-06-26T07:15:49;5.72;;;5.07;;
12776;SDS011;6452;41.572;23.732;2023-06-26T07:18:15;5.30;;;4.85;;
12776;SDS011;6452;41.572;23.732;2023-06-26T07:20:41;5.97;;;5.47;;
12776;SDS011;6452;41.572;23.732;2023-06-26T07:23:07;7.07;;;5.72;;
12776;SDS011;6452;41.572;23.732;2023-06-26T07:25:33;5.15;;;4.65;;
12776;SDS011;6452;41.572;23.732;2023-06-26T07:27:59;6.13;;;5.60;;
12776;SDS011;6452;41.572;23.732;2023-06-26T07:30:25;5.47;;;4.95;;
12776;SDS011;6452;41.572;23.732;2023-06-26T07:32:51;5.53;;;5.03;;
12776;SDS011;6452;41.572;23.732;2023-06-26T07:35:17;6.75;;;4.95;;
12776;SDS011;6452;41.572;23.732;2023-06-26T07:37:42;8.82;;;5.75;;
12776;SDS011;6452;41.572;23.732;2023-06-26T07:40:09;6.65;;;5.95;;
12776;SDS011;6452;41.572;23.732;2023-06-26T07:42:35;5.90;;;5.35;;
12776;SDS011;6452;41.572;23.732;2023-06-26T07:45:01;4.65;;;4.25;;
12776;SDS011;6452;41.572;23.732;2023-06-26T07:47:27;6.32;;;5.72;;
12776;SDS011;6452;41.572;23.732;2023-06-26T07:49:54;6.85;;;5.05;;
12776;SDS011;6452;41.572;23.732;2023-06-26T07:52:20;5.45;;;5.05;;
12776;SDS011;6452;41.572;23.732;2023-06-26T07:54:46;5.95;;;5.40;;
12776;SDS011;6452;41.572;23.732;2023-06-26T07:57:12;5.90;;;5.30;;
12776;SDS011;6452;41.572;23.732;2023-06-26T07:59:38;5.25;;;4.85;;
12776;SDS011;6452;41.572;23.732;2023-06-26T08:02:04;6.00;;;4.40;;
12776;SDS011;6452;41.572;23.732;2023-06-26T08:04:30;5.10;;;4.70;;
12776;SDS011;6452;41.572;23.732;2023-06-26T08:06:58;4.50;;;4.18;;
12776;SDS011;6452;41.572;23.732;2023-06-26T08:09:24;4.93;;;4.47;;
12776;SDS011;6452;41.572;23.732;2023-06-26T08:11:50;4.97;;;4.50;;
12776;SDS011;6452;41.572;23.732;2023-06-26T08:14:17;5.22;;;4.72;;
12776;SDS011;6452;41.572;23.732;2023-06-26T08:16:43;5.72;;;4.35;;
12776;SDS011;6452;41.572;23.732;2023-06-26T08:19:28;6.00;;;4.15;;
12776;SDS011;6452;41.572;23.732;2023-06-26T08:21:54;5.82;;;4.43;;
12776;SDS011;6452;41.572;23.732;2023-06-26T08:24:20;4.07;;;3.63;;
12776;SDS011;6452;41.572;23.732;2023-06-26T08:26:47;4.22;;;3.83;;
12776;SDS011;6452;41.572;23.732;2023-06-26T08:29:13;4.13;;;3.78;;
12776;SDS011;6452;41.572;23.732;2023-06-26T08:31:40;5.95;;;4.00;;
12776;SDS011;6452;41.572;23.732;2023-06-26T08:34:06;4.35;;;4.05;;
12776;SDS011;6452;41.572;23.732;2023-06-26T08:36:31;4.00;;;3.70;;
12776;SDS011;6452;41.572;23.732;2023-06-26T08:38:58;4.13;;;3.40;;
12776;SDS011;6452;41.572;23.732;2023-06-26T08:41:23;4.95;;;3.83;;
12776;SDS011;6452;41.572;23.732;2023-06-26T08:43:50;4.53;;;3.67;;
12776;SDS011;6452;41.572;23.732;2023-06-26T08:46:18;4.35;;;3.67;;
12776;SDS011;6452;41.572;23.732;2023-06-26T08:48:56;3.67;;;2.78;;
12776;SDS011;6452;41.572;23.732;2023-06-26T08:51:25;3.53;;;3.25;;
12776;SDS011;6452;41.572;23.732;2023-06-26T08:53:57;3.95;;;3.60;;
12776;SDS011;6452;41.572;23.732;2023-06-26T08:56:24;4.05;;;3.75;;
12776;SDS011;6452;41.572;23.732;2023-06-26T08:58:50;4.18;;;3.83;;
12776;SDS011;6452;41.572;23.732;2023-06-26T09:01:16;3.17;;;2.97;;
12776;SDS011;6452;41.572;23.732;2023-06-26T09:03:43;3.70;;;3.40;;
12776;SDS011;6452;41.572;23.732;2023-06-26T09:06:09;3.38;;;3.17;;
12776;SDS011;6452;41.572;23.732;2023-06-26T09:08:35;3.05;;;2.75;;
12776;SDS011;6452;41.572;23.732;2023-06-26T09:11:01;4.10;;;2.70;;
12776;SDS011;6452;41.572;23.732;2023-06-26T09:13:31;3.45;;;3.00;;
12776;SDS011;6452;41.572;23.732;2023-06-26T09:15:56;3.13;;;2.92;;
12776;SDS011;6452;41.572;23.732;2023-06-26T09:18:23;4.10;;;3.20;;
12776;SDS011;6452;41.572;23.732;2023-06-26T09:20:49;4.65;;;3.00;;
12776;SDS011;6452;41.572;23.732;2023-06-26T09:23:15;5.03;;;3.28;;
12776;SDS011;6452;41.572;23.732;2023-06-26T09:25:41;3.55;;;2.90;;
12776;SDS011;6452;41.572;23.732;2023-06-26T09:28:08;3.10;;;2.80;;
12776;SDS011;6452;41.572;23.732;2023-06-26T09:30:34;3.30;;;2.97;;
12776;SDS011;6452;41.572;23.732;2023-06-26T09:33:13;2.90;;;2.70;;
12776;SDS011;6452;41.572;23.732;2023-06-26T09:35:39;3.08;;;2.88;;
12776;SDS011;6452;41.572;23.732;2023-06-26T09:38:05;3.10;;;2.90;;
12776;SDS011;6452;41.572;23.732;2023-06-26T09:40:31;3.33;;;3.03;;
12776;SDS011;6452;41.572;23.732;2023-06-26T09:43:07;3.47;;;3.17;;
12776;SDS011;6452;41.572;23.732;2023-06-26T09:45:33;5.32;;;4.05;;
12776;SDS011;6452;41.572;23.732;2023-06-26T09:48:00;4.07;;;3.45;;
12776;SDS011;6452;41.572;23.732;2023-06-26T09:50:28;4.63;;;3.63;;
12776;SDS011;6452;41.572;23.732;2023-06-26T09:52:54;3.85;;;3.50;;
12776;SDS011;6452;41.572;23.732;2023-06-26T09:55:20;5.28;;;3.60;;
12776;SDS011;6452;41.572;23.732;2023-06-26T09:57:49;4.80;;;3.40;;
12776;SDS011;6452;41.572;23.732;2023-06-26T10:00:16;3.50;;;3.20;;
12776;SDS011;6452;41.572;23.732;2023-06-26T10:02:43;4.00;;;3.60;;
12776;SDS011;6452;41.572;23.732;2023-06-26T10:05:09;4.05;;;3.75;;
12776;SDS011;6452;41.572;23.732;2023-06-26T10:07:35;3.45;;;3.15;;
12776;SDS011;6452;41.572;23.732;2023-06-26T10:10:02;3.22;;;3.03;;
12776;SDS011;6452;41.572;23.732;2023-06-26T10:12:30;3.88;;;3.25;;
12776;SDS011;6452;41.572;23.732;2023-06-26T10:14:56;5.18;;;3.58;;
12776;SDS011;6452;41.572;23.732;2023-06-26T10:17:24;7.22;;;3.72;;
12776;SDS011;6452;41.572;23.732;2023-06-26T10:19:51;6.05;;;4.07;;
12776;SDS011;6452;41.572;23.732;2023-06-26T10:22:20;4.63;;;3.70;;
12776;SDS011;6452;41.572;23.732;2023-06-26T10:24:47;5.22;;;4.35;;
12776;SDS011;6452;41.572;23.732;2023-06-26T10:27:17;6.95;;;4.10;;
12776;SDS011;6452;41.572;23.732;2023-06-26T10:29:44;3.67;;;3.45;;
12776;SDS011;6452;41.572;23.732;2023-06-26T10:32:12;4.78;;;3.50;;
12776;SDS011;6452;41.572;23.732;2023-06-26T10:34:38;3.95;;;3.60;;
12776;SDS011;6452;41.572;23.732;2023-06-26T10:37:05;6.13;;;4.30;;
12776;SDS011;6452;41.572;23.732;2023-06-26T10:39:47;3.80;;;3.50;;
12776;SDS011;6452;41.572;23.732;2023-06-26T10:42:15;4.60;;;4.03;;
12776;SDS011;6452;41.572;23.732;2023-06-26T10:44:42;3.15;;;2.95;;
12776;SDS011;6452;41.572;23.732;2023-06-26T10:47:11;3.15;;;2.85;;
12776;SDS011;6452;41.572;23.732;2023-06-26T10:49:37;3.00;;;2.80;;
12776;SDS011;6452;41.572;23.732;2023-06-26T10:52:07;3.67;;;2.88;;
12776;SDS011;6452;41.572;23.732;2023-06-26T10:54:34;4.28;;;3.13;;
12776;SDS011;6452;41.572;23.732;2023-06-26T10:57:01;4.00;;;2.70;;
12776;SDS011;6452;41.572;23.732;2023-06-26T10:59:28;2.97;;;2.78;;
12776;SDS011;6452;41.572;23.732;2023-06-26T11:01:58;2.90;;;2.63;;
12776;SDS011;6452;41.572;23.732;2023-06-26T11:09:56;4.32;;;2.75;;
12776;SDS011;6452;41.572;23.732;2023-06-26T11:12:41;3.75;;;3.45;;
12776;SDS011;6452;41.572;23.732;2023-06-26T11:15:08;5.00;;;2.97;;
12776;SDS011;6452;41.572;23.732;2023-06-26T11:17:35;3.67;;;3.38;;
12776;SDS011;6452;41.572;23.732;2023-06-26T11:20:02;3.33;;;3.03;;
12776;SDS011;6452;41.572;23.732;2023-06-26T11:22:30;3.47;;;3.20;;
12776;SDS011;6452;41.572;23.732;2023-06-26T11:24:59;3.80;;;3.50;;
12776;SDS011;6452;41.572;23.732;2023-06-26T11:27:24;3.83;;;3.53;;
12776;SDS011;6452;41.572;23.732;2023-06-26T11:29:55;3.47;;;3.28;;
12776;SDS011;6452;41.572;23.732;2023-06-26T11:32:21;3.03;;;2.72;;
12776;SDS011;6452;41.572;23.732;2023-06-26T11:34:47;3.33;;;3.10;;
12776;SDS011;6452;41.572;23.732;2023-06-26T11:37:16;2.80;;;2.70;;
12776;SDS011;6452;41.572;23.732;2023-06-26T11:39:42;3.00;;;2.80;;
12776;SDS011;6452;41.572;23.732;2023-06-26T11:42:08;4.53;;;3.10;;
12776;SDS011;6452;41.572;23.732;2023-06-26T11:44:42;4.05;;;2.75;;
12776;SDS011;6452;41.572;23.732;2023-06-26T11:47:12;2.78;;;2.60;;
12776;SDS011;6452;41.572;23.732;2023-06-26T11:49:38;3.35;;;3.05;;
12776;SDS011;6452;41.572;23.732;2023-06-26T11:52:04;2.80;;;2.60;;
12776;SDS011;6452;41.572;23.732;2023-06-26T11:54:30;2.70;;;2.50;;
12776;SDS011;6452;41.572;23.732;2023-06-26T11:56:57;3.03;;;2.80;;
12776;SDS011;6452;41.572;23.732;2023-06-26T11:59:23;3.20;;;3.00;;
12776;SDS011;6452;41.572;23.732;2023-06-26T12:01:49;3.22;;;3.03;;
12776;SDS011;6452;41.572;23.732;2023-06-26T12:04:17;3.38;;;2.95;;
12776;SDS011;6452;41.572;23.732;2023-06-26T12:06:46;4.05;;;3.08;;
12776;SDS011;6452;41.572;23.732;2023-06-26T12:09:14;3.33;;;3.03;;
12776;SDS011;6452;41.572;23.732;2023-06-26T12:11:40;2.95;;;2.67;;
12776;SDS011;6452;41.572;23.732;2023-06-26T12:14:07;3.08;;;2.83;;
12776;SDS011;6452;41.572;23.732;2023-06-26T12:16:33;2.70;;;2.60;;
12776;SDS011;6452;41.572;23.732;2023-06-26T12:19:00;3.03;;;2.83;;
12776;SDS011;6452;41.572;23.732;2023-06-26T12:23:58;2.75;;;2.55;;
12776;SDS011;6452;41.572;23.732;2023-06-26T12:26:25;4.05;;;2.50;;
12776;SDS011;6452;41.572;23.732;2023-06-26T12:28:51;2.85;;;2.65;;
12776;SDS011;6452;41.572;23.732;2023-06-26T12:31:19;2.88;;;2.42;;
12776;SDS011;6452;41.572;23.732;2023-06-26T12:33:46;2.58;;;2.40;;
12776;SDS011;6452;41.572;23.732;2023-06-26T12:36:12;3.50;;;2.80;;
12776;SDS011;6452;41.572;23.732;2023-06-26T12:38:38;4.28;;;3.25;;
12776;SDS011;6452;41.572;23.732;2023-06-26T12:41:04;3.25;;;3.05;;
12776;SDS011;6452;41.572;23.732;2023-06-26T12:43:30;2.90;;;2.70;;
12776;SDS011;6452;41.572;23.732;2023-06-26T12:45:56;2.90;;;2.70;;
12776;SDS011;6452;41.572;23.732;2023-06-26T12:48:42;3.10;;;2.83;;
12776;SDS011;6452;41.572;23.732;2023-06-26T12:51:30;2.28;;;2.17;;
12776;SDS011;6452;41.572;23.732;2023-06-26T12:53:56;2.45;;;2.35;;
12776;SDS011;6452;41.572;23.732;2023-06-26T12:56:22;2.72;;;2.53;;
12776;SDS011;6452;41.572;23.732;2023-06-26T12:58:48;4.28;;;2.30;;
12776;SDS011;6452;41.572;23.732;2023-06-26T13:01:18;3.40;;;2.88;;
12776;SDS011;6452;41.572;23.732;2023-06-26T13:03:45;3.10;;;2.80;;
12776;SDS011;6452;41.572;23.732;2023-06-26T13:06:11;2.70;;;2.50;;
12776;SDS011;6452;41.572;23.732;2023-06-26T13:08:39;2.50;;;2.40;;
12776;SDS011;6452;41.572;23.732;2023-06-26T13:11:05;2.45;;;2.30;;
12776;SDS011;6452;41.572;23.732;2023-06-26T13:13:31;2.40;;;2.20;;
12776;SDS011;6452;41.572;23.732;2023-06-26T13:16:01;2.47;;;2.28;;
12776;SDS011;6452;41.572;23.732;2023-06-26T13:18:27;2.53;;;2.42;;
12776;SDS011;6452;41.572;23.732;2023-06-26T13:20:54;2.47;;;2.35;;
12776;SDS011;6452;41.572;23.732;2023-06-26T13:23:20;2.38;;;2.28;;
12776;SDS011;6452;41.572;23.732;2023-06-26T13:25:46;2.40;;;2.30;;
12776;SDS011;6452;41.572;23.732;2023-06-26T13:28:12;2.65;;;2.45;;
12776;SDS011;6452;41.572;23.732;2023-06-26T13:30:38;2.90;;;2.70;;
12776;SDS011;6452;41.572;23.732;2023-06-26T13:33:04;2.58;;;2.35;;
12776;SDS011;6452;41.572;23.732;2023-06-26T13:35:30;2.85;;;2.63;;
12776;SDS011;6452;41.572;23.732;2023-06-26T13:37:56;2.70;;;2.50;;
12776;SDS011;6452;41.572;23.732;2023-06-26T13:40:23;2.53;;;2.38;;
12776;SDS011;6452;41.572;23.732;2023-06-26T13:42:49;2.72;;;2.53;;
12776;SDS011;6452;41.572;23.732;2023-06-26T13:45:15;2.72;;;2.53;;
12776;SDS011;6452;41.572;23.732;2023-06-26T13:47:41;3.20;;;2.88;;
12776;SDS011;6452;41.572;23.732;2023-06-26T13:50:08;2.95;;;2.75;;
12776;SDS011;6452;41.572;23.732;2023-06-26T13:52:35;2.78;;;2.67;;
12776;SDS011;6452;41.572;23.732;2023-06-26T13:55:01;2.70;;;2.50;;
12776;SDS011;6452;41.572;23.732;2023-06-26T13:57:31;2.70;;;2.60;;
12776;SDS011;6452;41.572;23.732;2023-06-26T13:59:56;2.50;;;2.30;;
12776;SDS011;6452;41.572;23.732;2023-06-26T14:02:22;2.53;;;2.42;;
12776;SDS011;6452;41.572;23.732;2023-06-26T14:04:48;2.53;;;2.42;;
12776;SDS011;6452;41.572;23.732;2023-06-26T14:07:14;3.08;;;2.50;;
12776;SDS011;6452;41.572;23.732;2023-06-26T14:09:40;2.30;;;2.20;;
12776;SDS011;6452;41.572;23.732;2023-06-26T14:12:07;2.20;;;2.10;;
12776;SDS011;6452;41.572;23.732;2023-06-26T14:14:33;2.78;;;2.50;;
12776;SDS011;6452;41.572;23.732;2023-06-26T14:16:59;2.17;;;2.03;;
12776;SDS011;6452;41.572;23.732;2023-06-26T14:19:25;2.55;;;2.40;;
12776;SDS011;6452;41.572;23.732;2023-06-26T14:21:52;2.60;;;2.50;;
12776;SDS011;6452;41.572;23.732;2023-06-26T14:24:18;2.20;;;2.10;;
12776;SDS011;6452;41.572;23.732;2023-06-26T14:26:44;2.65;;;2.50;;
12776;SDS011;6452;41.572;23.732;2023-06-26T14:29:10;2.50;;;2.40;;
12776;SDS011;6452;41.572;23.732;2023-06-26T14:31:36;2.45;;;2.35;;
12776;SDS011;6452;41.572;23.732;2023-06-26T14:34:03;2.90;;;2.70;;
12776;SDS011;6452;41.572;23.732;2023-06-26T14:36:29;2.78;;;2.67;;
12776;SDS011;6452;41.572;23.732;2023-06-26T14:38:57;2.85;;;2.75;;
12776;SDS011;6452;41.572;23.732;2023-06-26T14:41:24;4.13;;;2.85;;
12776;SDS011;6452;41.572;23.732;2023-06-26T14:43:50;5.03;;;3.20;;
12776;SDS011;6452;41.572;23.732;2023-06-26T14:46:18;4.45;;;3.28;;
12776;SDS011;6452;41.572;23.732;2023-06-26T14:48:44;3.28;;;3.08;;
12776;SDS011;6452;41.572;23.732;2023-06-26T14:51:11;2.88;;;2.67;;
12776;SDS011;6452;41.572;23.732;2023-06-26T14:53:37;2.97;;;2.80;;
12776;SDS011;6452;41.572;23.732;2023-06-26T14:56:07;3.20;;;3.00;;
12776;SDS011;6452;41.572;23.732;2023-06-26T14:58:34;2.80;;;2.65;;
12776;SDS011;6452;41.572;23.732;2023-06-26T15:01:00;3.25;;;3.05;;
12776;SDS011;6452;41.572;23.732;2023-06-26T15:03:26;2.95;;;2.65;;